Аэропорт
Хабаровск (UHHH)

 UHHH / KHV
ЗЦ Хабаровск
Хабаровск (UHHH)
Хабаровск (UHHH)
 48.52800, 135.18800  / 244 ft

 UHHH 191030Z 04007MPS CAVOK M04/M15 Q1012 R05R/090060 NOSIG RMK QFE753/1004
 UHHH 182254Z 1900/2006 06006MPS CAVOK TEMPO 1900/1908 10008MPS SCT020 FM191200 04009MPS 3100 -SHSN SCT006 BKN020CB TEMPO 1912/1924 03010G15MPS 1000 SHSN BKN004 BKN015CB
uhhh_aip_1605
показать схемы
Название сценария Тип сценария Flight Simulator 9 Flight Simulator X Prepar3D v2 Prepar3D v3 Prepar3D v4 xPlane
uhhh-scenery-fs9-1104 бесплатный
uhhh-scenery-fs9-1406 бесплатный
uhhh-scenery-xpl-1007 бесплатный
UHHH_2017_X_P3D4 бесплатный


2019 © VATRUS division (Privacy Policy)